createdAt,value
2019-01-06T00:01:01.163Z,-4.17
2019-01-06T00:03:49.844Z,-4.26
2019-01-06T00:06:37.374Z,-4.28
2019-01-06T00:09:42.328Z,-4.33
2019-01-06T00:12:49.070Z,-4.41
2019-01-06T00:15:46.683Z,-4.37
2019-01-06T00:18:33.746Z,-4.30
2019-01-06T00:21:23.490Z,-4.26
2019-01-06T00:24:15.155Z,-4.26
2019-01-06T00:27:03.025Z,-4.24
2019-01-06T00:30:00.737Z,-4.26
2019-01-06T00:32:48.344Z,-4.23
2019-01-06T00:35:38.430Z,-4.34
2019-01-06T00:38:37.830Z,-4.37
2019-01-06T00:41:35.696Z,-4.49
2019-01-06T00:44:24.412Z,-4.63
2019-01-06T00:47:11.640Z,-4.66
2019-01-06T00:49:59.001Z,-4.79
2019-01-06T00:52:50.451Z,-4.81
2019-01-06T00:55:48.009Z,-4.91
2019-01-06T00:58:39.969Z,-4.87
2019-01-06T01:01:27.134Z,-4.94
2019-01-06T01:04:28.185Z,-4.94
2019-01-06T01:07:16.115Z,-4.89
2019-01-06T01:10:14.148Z,-4.82
2019-01-06T01:13:01.523Z,-4.82
2019-01-06T01:15:48.887Z,-4.76
2019-01-06T01:18:36.325Z,-4.76
2019-01-06T01:21:34.152Z,-4.81
2019-01-06T01:24:27.182Z,-4.73
2019-01-06T01:27:14.540Z,-4.74
2019-01-06T01:30:03.300Z,-4.74
2019-01-06T01:32:55.094Z,-4.94
2019-01-06T01:35:49.883Z,-5.07
2019-01-06T01:38:56.816Z,-5.09
2019-01-06T01:41:42.982Z,-5.17
2019-01-06T01:44:40.528Z,-5.20
2019-01-06T01:47:41.561Z,-5.34
2019-01-06T01:50:30.306Z,-5.38
2019-01-06T01:53:21.702Z,-5.37
2019-01-06T01:56:25.657Z,-5.43
2019-01-06T01:59:20.183Z,-5.59
2019-01-06T02:02:14.592Z,-5.59
2019-01-06T02:05:18.334Z,-5.46
2019-01-06T02:08:06.921Z,-5.42
2019-01-06T02:11:06.628Z,-5.48
2019-01-06T02:13:58.234Z,-5.42
2019-01-06T02:16:53.261Z,-5.49
2019-01-06T02:19:41.794Z,-5.60
2019-01-06T02:22:39.622Z,-5.78
2019-01-06T02:25:42.570Z,-5.82
2019-01-06T02:28:49.327Z,-5.99
2019-01-06T02:31:56.048Z,-6.11
2019-01-06T02:34:59.771Z,-6.12
2019-01-06T02:37:46.658Z,-6.22
2019-01-06T02:40:35.651Z,-6.32
2019-01-06T02:43:21.782Z,-6.35
2019-01-06T02:46:13.825Z,-6.39
2019-01-06T02:49:14.697Z,-6.39
2019-01-06T02:52:06.320Z,-6.31
2019-01-06T02:54:55.111Z,-6.26
2019-01-06T02:57:42.338Z,-6.18
2019-01-06T03:00:49.575Z,-6.17
2019-01-06T03:03:50.545Z,-6.25
2019-01-06T03:06:37.541Z,-6.27
2019-01-06T03:09:29.957Z,-6.33
2019-01-06T03:12:17.473Z,-6.22
2019-01-06T03:15:03.238Z,-6.11
2019-01-06T03:17:50.601Z,-6.07
2019-01-06T03:20:37.861Z,-6.21
2019-01-06T03:23:20.042Z,-6.27
2019-01-06T03:26:19.133Z,-6.41
2019-01-06T03:29:06.396Z,-6.51
2019-01-06T03:31:54.089Z,-6.58
2019-01-06T03:34:38.558Z,-6.58
2019-01-06T03:37:42.654Z,-6.56
2019-01-06T03:40:34.188Z,-6.53
2019-01-06T03:43:15.887Z,-6.40
2019-01-06T03:46:17.121Z,-6.38
2019-01-06T03:49:07.194Z,-6.46
2019-01-06T03:52:04.835Z,-6.73
2019-01-06T03:54:53.521Z,-6.73
2019-01-06T03:57:54.237Z,-6.66
2019-01-06T04:00:42.189Z,-6.58
2019-01-06T04:03:37.378Z,-6.52
2019-01-06T04:06:29.445Z,-6.48
2019-01-06T04:09:19.146Z,-6.54
2019-01-06T04:12:10.877Z,-6.46
2019-01-06T04:15:02.589Z,-6.41
2019-01-06T04:18:09.865Z,-6.48
2019-01-06T04:21:03.686Z,-6.38
2019-01-06T04:23:58.581Z,-6.38
2019-01-06T04:27:00.004Z,-6.39
2019-01-06T04:29:47.899Z,-6.57
2019-01-06T04:32:45.716Z,-6.85
2019-01-06T04:35:40.667Z,-7.12
2019-01-06T04:38:29.344Z,-7.18
2019-01-06T04:41:36.097Z,-7.27
2019-01-06T04:44:24.901Z,-7.30
2019-01-06T04:47:13.645Z,-7.20
2019-01-06T04:50:00.940Z,-7.12
2019-01-06T04:52:48.618Z,-7.18
2019-01-06T04:55:49.654Z,-7.22
2019-01-06T04:58:41.408Z,-7.26
2019-01-06T05:01:28.937Z,-7.42
2019-01-06T05:04:20.471Z,-7.23
2019-01-06T05:07:07.815Z,-7.29
2019-01-06T05:10:09.096Z,-7.20
2019-01-06T05:13:13.578Z,-7.21
2019-01-06T05:15:57.052Z,-7.55
2019-01-06T05:18:44.397Z,-7.45
2019-01-06T05:21:28.597Z,-7.31
2019-01-06T05:24:15.838Z,-7.13
2019-01-06T05:26:58.969Z,-7.02
2019-01-06T05:30:00.761Z,-6.96
2019-01-06T05:32:48.584Z,-6.92
2019-01-06T05:35:49.578Z,-6.89
2019-01-06T05:38:40.184Z,-6.88
2019-01-06T05:41:28.914Z,-6.82
2019-01-06T05:44:15.894Z,-6.80
2019-01-06T05:47:16.528Z,-6.84
2019-01-06T05:50:14.603Z,-6.94
2019-01-06T05:53:01.997Z,-7.24
2019-01-06T05:55:56.739Z,-7.68
2019-01-06T05:58:45.572Z,-7.81
2019-01-06T06:01:34.124Z,-7.79
2019-01-06T06:04:22.979Z,-7.68
2019-01-06T06:07:11.439Z,-7.71
2019-01-06T06:10:04.642Z,-7.41
2019-01-06T06:12:52.591Z,-7.25
2019-01-06T06:15:40.041Z,-7.12
2019-01-06T06:18:31.643Z,-7.08
2019-01-06T06:21:31.440Z,-7.05
2019-01-06T06:24:25.724Z,-7.13
2019-01-06T06:27:22.046Z,-7.23
2019-01-06T06:30:21.549Z,-7.20
2019-01-06T06:33:34.829Z,-6.92
2019-01-06T06:36:36.845Z,-6.78
2019-01-06T06:39:59.274Z,-6.49
2019-01-06T06:42:48.061Z,-6.15
2019-01-06T06:45:49.671Z,-6.20
2019-01-06T06:48:32.324Z,-6.14
2019-01-06T06:51:30.157Z,-6.22
2019-01-06T06:54:21.746Z,-6.18
2019-01-06T06:57:45.076Z,-6.19
2019-01-06T07:00:53.371Z,-6.02
2019-01-06T07:03:57.427Z,-6.06
2019-01-06T07:06:52.554Z,-5.95
2019-01-06T07:09:44.040Z,-5.77
2019-01-06T07:12:31.506Z,-5.69
2019-01-06T07:15:18.734Z,-5.74
2019-01-06T07:18:07.457Z,-5.82
2019-01-06T07:20:57.626Z,-5.95
2019-01-06T07:23:45.134Z,-6.12
2019-01-06T07:26:46.158Z,-6.28
2019-01-06T07:29:33.859Z,-5.96
2019-01-06T07:32:21.148Z,-5.75
2019-01-06T07:35:10.058Z,-5.76
2019-01-06T07:37:57.763Z,-5.58
2019-01-06T07:40:50.779Z,-5.98
2019-01-06T07:43:42.495Z,-6.12
2019-01-06T07:46:37.292Z,-6.07
2019-01-06T07:49:28.995Z,-5.35
2019-01-06T07:52:14.802Z,-5.31
2019-01-06T07:55:14.490Z,-5.01
2019-01-06T07:58:03.089Z,-4.93
2019-01-06T08:00:55.030Z,-4.95
2019-01-06T08:03:46.008Z,-4.64
2019-01-06T08:06:33.675Z,-4.84
2019-01-06T08:09:23.218Z,-4.93
2019-01-06T08:12:11.912Z,-5.10
2019-01-06T08:15:01.103Z,-4.99
2019-01-06T08:17:48.280Z,-4.97
2019-01-06T08:20:46.538Z,-4.79
2019-01-06T08:23:33.783Z,-4.53
2019-01-06T08:26:24.011Z,-4.31
2019-01-06T08:29:15.721Z,-4.08
2019-01-06T08:31:56.347Z,-3.91
2019-01-06T08:34:44.982Z,-4.15
2019-01-06T08:37:32.526Z,-4.18
2019-01-06T08:40:27.633Z,-3.95
2019-01-06T08:43:31.229Z,-4.11
2019-01-06T08:46:18.612Z,-4.20
2019-01-06T08:49:05.864Z,-4.01
2019-01-06T08:51:54.733Z,-3.98
2019-01-06T08:54:42.557Z,-4.12
2019-01-06T08:57:26.273Z,-4.18
2019-01-06T09:00:16.271Z,-4.05
2019-01-06T09:03:11.109Z,-3.75
2019-01-06T09:05:59.945Z,-3.89
2019-01-06T09:08:48.329Z,-3.82
2019-01-06T09:11:42.631Z,-3.91
2019-01-06T09:14:39.449Z,-3.84
2019-01-06T09:17:28.487Z,-3.67
2019-01-06T09:20:26.575Z,-3.77
2019-01-06T09:23:15.320Z,-3.91
2019-01-06T09:26:02.834Z,-3.69
2019-01-06T09:28:57.816Z,-3.57
2019-01-06T09:31:48.591Z,-3.35
2019-01-06T09:34:29.086Z,-3.77
2019-01-06T09:37:16.726Z,-3.72
2019-01-06T09:40:06.738Z,-3.57
2019-01-06T09:43:13.892Z,-3.24
2019-01-06T09:46:14.771Z,-3.58
2019-01-06T09:49:03.772Z,-3.25
2019-01-06T09:52:07.813Z,-3.22
2019-01-06T09:55:00.316Z,-3.29
2019-01-06T09:57:52.538Z,-3.34
2019-01-06T10:00:41.497Z,-3.31
2019-01-06T10:03:36.113Z,-3.53
2019-01-06T10:06:23.421Z,-3.48
2019-01-06T10:09:11.265Z,-3.03
2019-01-06T10:12:15.239Z,-2.73
2019-01-06T10:15:05.374Z,-2.63
2019-01-06T10:17:51.014Z,-2.85
2019-01-06T10:20:38.471Z,-3.08
2019-01-06T10:23:25.734Z,-2.65
2019-01-06T10:26:13.036Z,-2.44
2019-01-06T10:29:04.636Z,-2.21
2019-01-06T10:31:52.048Z,-2.21
2019-01-06T10:34:39.701Z,-2.17
2019-01-06T10:37:34.656Z,-2.21
2019-01-06T10:40:30.388Z,-2.01
2019-01-06T10:43:22.271Z,-1.93
2019-01-06T10:46:18.095Z,-1.80
2019-01-06T10:49:13.481Z,-2.01
2019-01-06T10:52:11.109Z,-1.54
2019-01-06T10:55:04.171Z,-1.53
2019-01-06T10:58:02.043Z,-1.34
2019-01-06T11:01:09.217Z,-0.89
2019-01-06T11:04:00.931Z,-1.04
2019-01-06T11:06:49.598Z,-1.02
2019-01-06T11:09:47.558Z,-1.07
2019-01-06T11:12:35.469Z,-1.12
2019-01-06T11:15:23.818Z,-1.32
2019-01-06T11:18:17.779Z,-1.40
2019-01-06T11:21:16.161Z,-1.42
2019-01-06T11:24:13.950Z,-1.52
2019-01-06T11:27:14.830Z,-1.40
2019-01-06T11:30:03.655Z,-1.77
2019-01-06T11:32:56.765Z,-1.90
2019-01-06T11:35:44.084Z,-1.96
2019-01-06T11:38:45.928Z,-1.93
2019-01-06T11:41:34.667Z,-1.77
2019-01-06T11:44:36.796Z,-1.84
2019-01-06T11:47:35.784Z,-1.63
2019-01-06T11:50:24.570Z,-1.52
2019-01-06T11:53:14.611Z,-1.24
2019-01-06T11:56:02.247Z,-1.37
2019-01-06T11:59:09.750Z,-1.12
2019-01-06T12:01:57.183Z,-1.04
2019-01-06T12:05:03.750Z,-1.35
2019-01-06T12:08:05.930Z,-1.02
2019-01-06T12:10:51.133Z,-1.07
2019-01-06T12:13:44.435Z,-0.84
2019-01-06T12:16:41.909Z,-0.74
2019-01-06T12:19:36.652Z,-0.42
2019-01-06T12:22:24.374Z,-0.51
2019-01-06T12:25:13.447Z,-0.54
2019-01-06T12:28:02.686Z,-0.71
2019-01-06T12:30:56.126Z,-0.71
2019-01-06T12:33:44.902Z,-0.58
2019-01-06T12:36:32.367Z,-0.30
2019-01-06T12:39:28.893Z,-0.12
2019-01-06T12:42:17.568Z,-0.36
2019-01-06T12:45:05.745Z,-0.29
2019-01-06T12:47:58.514Z,-0.34
2019-01-06T12:50:53.453Z,-0.41
2019-01-06T12:53:40.836Z,-0.37
2019-01-06T12:56:43.081Z,-0.33
2019-01-06T12:59:30.568Z,-0.34
2019-01-06T13:02:28.968Z,-0.34
2019-01-06T13:05:16.637Z,-0.42
2019-01-06T13:08:20.507Z,-0.40
2019-01-06T13:11:07.920Z,-0.42
2019-01-06T13:13:57.074Z,-0.56
2019-01-06T13:16:44.321Z,-0.45
2019-01-06T13:19:42.408Z,-0.37
2019-01-06T13:22:40.681Z,-0.26
2019-01-06T13:25:28.040Z,-0.19
2019-01-06T13:28:34.726Z,-0.10
2019-01-06T13:31:41.822Z,-0.16
2019-01-06T13:34:34.662Z,-0.11
2019-01-06T13:37:35.632Z,-0.03
2019-01-06T13:40:31.163Z,-0.05
2019-01-06T13:43:34.964Z,-0.04
2019-01-06T13:46:27.417Z,-0.04
2019-01-06T13:49:16.241Z,0.03
2019-01-06T13:52:18.866Z,0.01
2019-01-06T13:55:06.486Z,0.03
2019-01-06T13:57:53.714Z,0.07
2019-01-06T14:00:46.431Z,0.10
2019-01-06T14:03:44.066Z,0.08
2019-01-06T14:06:35.689Z,0.06
2019-01-06T14:09:24.494Z,0.13
2019-01-06T14:12:13.134Z,0.14
2019-01-06T14:15:17.262Z,0.21
2019-01-06T14:18:06.056Z,0.19
2019-01-06T14:20:53.702Z,0.20
2019-01-06T14:23:42.574Z,0.23
2019-01-06T14:26:48.710Z,0.19
2019-01-06T14:29:36.455Z,0.26
2019-01-06T14:32:37.594Z,0.24
2019-01-06T14:35:26.557Z,0.25
2019-01-06T14:38:06.771Z,0.26
2019-01-06T14:41:13.632Z,0.27
2019-01-06T14:44:03.290Z,0.25
2019-01-06T14:46:54.811Z,0.20
2019-01-06T14:49:52.443Z,0.23
2019-01-06T14:52:59.045Z,0.22
2019-01-06T14:55:56.711Z,0.18
2019-01-06T14:58:56.682Z,0.13
2019-01-06T15:01:49.528Z,0.08
2019-01-06T15:04:47.015Z,0.05
2019-01-06T15:07:44.863Z,0.04
2019-01-06T15:10:40.808Z,0.02
2019-01-06T15:13:37.257Z,0.00
2019-01-06T15:16:24.202Z,-0.06
2019-01-06T15:19:18.782Z,-0.12
2019-01-06T15:22:05.806Z,-0.06
2019-01-06T15:24:54.432Z,-0.07
2019-01-06T15:27:43.802Z,-0.07
2019-01-06T15:30:37.287Z,-0.11
2019-01-06T15:33:34.849Z,-0.09
2019-01-06T15:36:22.350Z,-0.08
2019-01-06T15:39:19.737Z,-0.05
2019-01-06T15:42:12.840Z,-0.05
2019-01-06T15:45:01.465Z,-0.07
2019-01-06T15:47:59.917Z,-0.09
2019-01-06T15:50:47.187Z,-0.09
2019-01-06T15:53:39.116Z,-0.09
2019-01-06T15:56:26.874Z,-0.15
2019-01-06T15:59:18.613Z,-0.18
2019-01-06T16:02:05.147Z,-0.15
2019-01-06T16:05:09.280Z,-0.13
2019-01-06T16:08:16.275Z,-0.12
2019-01-06T16:11:17.111Z,-0.17
2019-01-06T16:14:05.856Z,-0.16
2019-01-06T16:17:00.542Z,-0.18
2019-01-06T16:19:50.746Z,-0.19
2019-01-06T16:22:44.481Z,-0.15
2019-01-06T16:25:31.722Z,-0.17
2019-01-06T16:28:19.195Z,-0.19
2019-01-06T16:31:13.852Z,-0.08
2019-01-06T16:34:02.557Z,-0.08
2019-01-06T16:37:07.207Z,-0.05
2019-01-06T16:39:55.638Z,-0.05
2019-01-06T16:42:56.732Z,-0.01
2019-01-06T16:45:45.678Z,0.10
2019-01-06T16:48:50.507Z,0.16
2019-01-06T16:51:39.111Z,0.15
2019-01-06T16:54:30.912Z,0.04
2019-01-06T16:57:25.821Z,0.18
2019-01-06T17:00:19.789Z,0.15
2019-01-06T17:03:08.712Z,0.26
2019-01-06T17:05:56.594Z,0.24
2019-01-06T17:08:54.103Z,0.16
2019-01-06T17:11:44.851Z,0.17
2019-01-06T17:14:42.512Z,0.07
2019-01-06T17:17:43.182Z,0.13
2019-01-06T17:20:30.515Z,0.04
2019-01-06T17:23:19.465Z,0.05
2019-01-06T17:26:23.732Z,0.01
2019-01-06T17:29:18.732Z,0.01
2019-01-06T17:32:10.475Z,0.07
2019-01-06T17:34:59.492Z,0.02
2019-01-06T17:37:54.150Z,-0.04
2019-01-06T17:40:41.502Z,0.04
2019-01-06T17:43:29.003Z,0.08
2019-01-06T17:46:23.700Z,0.02
2019-01-06T17:49:15.361Z,-0.08
2019-01-06T17:52:02.759Z,-0.16
2019-01-06T17:54:51.550Z,-0.19
2019-01-06T17:57:40.180Z,-0.12
2019-01-06T18:00:39.215Z,-0.11
2019-01-06T18:03:27.920Z,-0.24
2019-01-06T18:06:15.596Z,-0.15
2019-01-06T18:09:02.922Z,-0.18
2019-01-06T18:12:03.835Z,-0.11
2019-01-06T18:14:59.791Z,-0.21
2019-01-06T18:17:57.428Z,-0.17
2019-01-06T18:20:44.771Z,-0.18
2019-01-06T18:23:42.517Z,-0.12
2019-01-06T18:26:29.960Z,-0.29
2019-01-06T18:29:17.665Z,-0.20
2019-01-06T18:32:04.836Z,-0.34
2019-01-06T18:34:56.712Z,-0.28
2019-01-06T18:37:44.387Z,-0.31
2019-01-06T18:40:42.320Z,-0.33
2019-01-06T18:43:29.603Z,-0.28
2019-01-06T18:46:16.886Z,-0.39
2019-01-06T18:49:14.515Z,-0.30
2019-01-06T18:52:09.596Z,-0.36
2019-01-06T18:54:57.093Z,-0.34
2019-01-06T18:57:45.588Z,-0.43
2019-01-06T19:00:33.724Z,-0.39
2019-01-06T19:03:28.563Z,-0.48
2019-01-06T19:06:32.229Z,-0.63
2019-01-06T19:09:19.680Z,-0.45
2019-01-06T19:12:23.470Z,-0.57
2019-01-06T19:15:10.952Z,-0.79
2019-01-06T19:18:04.167Z,-0.94
2019-01-06T19:20:51.957Z,-0.92
2019-01-06T19:23:46.595Z,-0.86
2019-01-06T19:26:41.202Z,-0.85
2019-01-06T19:29:28.921Z,-0.85
2019-01-06T19:32:17.664Z,-0.84
2019-01-06T19:35:07.412Z,-0.70
2019-01-06T19:38:01.949Z,-0.72
2019-01-06T19:41:09.033Z,-0.70
2019-01-06T19:43:54.603Z,-0.67
2019-01-06T19:47:00.433Z,-0.74
2019-01-06T19:49:47.867Z,-0.73
2019-01-06T19:52:35.380Z,-0.84
2019-01-06T19:55:33.197Z,-0.97
2019-01-06T19:58:20.751Z,-0.96
2019-01-06T20:01:07.963Z,-0.76
2019-01-06T20:03:56.412Z,-0.73
2019-01-06T20:06:43.646Z,-0.85
2019-01-06T20:09:38.419Z,-0.85
2019-01-06T20:12:26.015Z,-0.77
2019-01-06T20:15:13.193Z,-0.82
2019-01-06T20:18:01.906Z,-0.76
2019-01-06T20:20:49.448Z,-0.73
2019-01-06T20:23:36.761Z,-0.84
2019-01-06T20:26:28.540Z,-0.97
2019-01-06T20:29:16.117Z,-0.77
2019-01-06T20:32:22.982Z,-0.88
2019-01-06T20:35:10.274Z,-1.00
2019-01-06T20:37:57.887Z,-1.04
2019-01-06T20:40:46.764Z,-0.95
2019-01-06T20:43:44.733Z,-0.88
2019-01-06T20:46:47.859Z,-0.93
2019-01-06T20:49:48.303Z,-1.08
2019-01-06T20:52:41.768Z,-0.98
2019-01-06T20:55:26.412Z,-0.98
2019-01-06T20:58:14.026Z,-1.11
2019-01-06T21:01:02.788Z,-1.02
2019-01-06T21:03:54.326Z,-1.19
2019-01-06T21:06:43.297Z,-1.05
2019-01-06T21:09:50.522Z,-1.02
2019-01-06T21:12:39.648Z,-0.97
2019-01-06T21:15:40.951Z,-0.95
2019-01-06T21:18:33.751Z,-1.01
2019-01-06T21:21:23.963Z,-1.18
2019-01-06T21:24:18.857Z,-1.02
2019-01-06T21:27:04.540Z,-0.96
2019-01-06T21:29:47.918Z,-1.00
2019-01-06T21:32:45.395Z,-1.17
2019-01-06T21:35:46.142Z,-1.19
2019-01-06T21:38:34.729Z,-1.07
2019-01-06T21:41:21.872Z,-1.28
2019-01-06T21:44:10.582Z,-1.35
2019-01-06T21:46:58.264Z,-1.12
2019-01-06T21:49:46.982Z,-1.13
2019-01-06T21:52:53.869Z,-1.22
2019-01-06T21:55:45.764Z,-1.32
2019-01-06T21:58:46.420Z,-1.39
2019-01-06T22:01:41.380Z,-1.48
2019-01-06T22:04:29.806Z,-1.26
2019-01-06T22:07:21.560Z,-1.20
2019-01-06T22:10:08.157Z,-1.30
2019-01-06T22:13:02.767Z,-1.29
2019-01-06T22:15:54.523Z,-1.17
2019-01-06T22:18:46.381Z,-1.25
2019-01-06T22:21:41.228Z,-1.39
2019-01-06T22:24:23.539Z,-1.47
2019-01-06T22:27:26.398Z,-1.60
2019-01-06T22:30:30.446Z,-1.66
2019-01-06T22:33:24.992Z,-1.78
2019-01-06T22:36:12.118Z,-1.75
2019-01-06T22:38:59.812Z,-1.79
2019-01-06T22:41:51.373Z,-1.77
2019-01-06T22:44:39.075Z,-1.78
2019-01-06T22:47:37.404Z,-1.71
2019-01-06T22:50:35.053Z,-1.70
2019-01-06T22:53:28.452Z,-1.78
2019-01-06T22:56:15.746Z,-1.84
2019-01-06T22:59:04.934Z,-1.93
2019-01-06T23:01:52.216Z,-2.02
2019-01-06T23:04:40.930Z,-2.12
2019-01-06T23:07:29.635Z,-2.11
2019-01-06T23:10:21.534Z,-1.99
2019-01-06T23:13:08.063Z,-1.99
2019-01-06T23:16:11.904Z,-1.94
2019-01-06T23:18:59.416Z,-1.99
2019-01-06T23:22:06.087Z,-1.98
2019-01-06T23:24:58.241Z,-2.06
2019-01-06T23:27:56.068Z,-2.05
2019-01-06T23:30:56.676Z,-2.09
2019-01-06T23:33:57.557Z,-2.02
2019-01-06T23:36:47.706Z,-2.05
2019-01-06T23:39:48.284Z,-1.99
2019-01-06T23:42:46.259Z,-2.14
2019-01-06T23:45:33.793Z,-2.26
2019-01-06T23:48:28.756Z,-2.15
2019-01-06T23:51:22.127Z,-2.12
2019-01-06T23:54:19.913Z,-2.07
2019-01-06T23:57:11.398Z,-1.92
